Time;durP1;ratioP1;P1;durP2;ratioP2;P2;SDS_P1;SDS_P2;PMS_P1;PMS_P2;Temp;Humidity;BMP_temperature;BMP_pressure;BME280_temperature;BME280_humidity;BME280_pressure;Samples;Min_cycle;Max_cycle;Signal;HPM_P1;HPM_P2
2023/05/21 00:01:34;;;;;;;27.50;17.80;;;13.90;99.90;;;;;;5028362;28;20517;-72
2023/05/21 00:04:02;;;;;;;23.77;16.93;;;13.90;99.90;;;;;;5027819;28;21201;-72
2023/05/21 00:06:28;;;;;;;28.80;17.10;;;13.90;99.90;;;;;;5028351;28;20453;-72
2023/05/21 00:08:56;;;;;;;28.13;17.80;;;13.90;99.90;;;;;;5035429;28;20499;-72
2023/05/21 00:11:23;;;;;;;26.27;16.80;;;13.90;99.90;;;;;;5036785;28;20914;-72
2023/05/21 00:13:49;;;;;;;30.83;17.50;;;13.90;99.90;;;;;;5049929;28;20452;-72
2023/05/21 00:16:16;;;;;;;25.40;18.17;;;13.80;99.90;;;;;;5038038;28;20448;-72
2023/05/21 00:18:43;;;;;;;25.57;16.90;;;13.80;99.90;;;;;;5049474;28;20514;-72
2023/05/21 00:21:11;;;;;;;28.50;17.83;;;13.90;99.90;;;;;;5039629;28;20473;-72
2023/05/21 00:23:38;;;;;;;27.00;16.80;;;13.70;99.90;;;;;;5038996;28;20460;-72
2023/05/21 00:26:06;;;;;;;27.47;17.97;;;13.80;99.90;;;;;;5033712;28;20827;-72
2023/05/21 00:28:33;;;;;;;27.63;16.97;;;13.80;99.90;;;;;;5032648;28;20450;-71
2023/05/21 00:31:00;;;;;;;25.73;17.90;;;13.80;99.90;;;;;;5040884;28;20512;-72
2023/05/21 00:33:27;;;;;;;29.60;17.93;;;13.80;99.90;;;;;;5042434;28;20454;-72
2023/05/21 00:35:55;;;;;;;28.50;17.37;;;13.80;99.90;;;;;;5040571;28;20512;-72
2023/05/21 00:38:22;;;;;;;26.67;17.73;;;13.80;99.90;;;;;;5032703;28;20458;-71
2023/05/21 00:40:49;;;;;;;29.33;17.00;;;13.80;99.90;;;;;;5032362;28;20469;-72
2023/05/21 00:43:17;;;;;;;25.37;17.50;;;13.70;99.90;;;;;;5032771;28;20449;-72
2023/05/21 00:45:46;;;;;;;28.97;16.20;;;13.70;99.90;;;;;;5041150;28;20506;-72
2023/05/21 00:48:13;;;;;;;29.00;18.10;;;13.70;99.90;;;;;;5042674;28;20452;-72
2023/05/21 00:50:40;;;;;;;30.33;16.60;;;13.70;99.90;;;;;;5036980;28;20485;-72
2023/05/21 00:53:08;;;;;;;25.27;15.87;;;13.70;99.90;;;;;;5033283;28;20507;-72
2023/05/21 00:55:35;;;;;;;24.93;17.00;;;13.70;99.90;;;;;;5032646;28;20916;-72
2023/05/21 00:58:03;;;;;;;31.10;17.30;;;13.70;99.90;;;;;;5032000;28;21016;-72
2023/05/21 01:00:32;;;;;;;28.50;17.03;;;13.70;99.90;;;;;;5039571;28;20890;-72
2023/05/21 01:03:00;;;;;;;26.57;17.43;;;13.70;99.90;;;;;;5040423;28;20453;-72
2023/05/21 01:05:27;;;;;;;29.93;16.93;;;13.70;99.90;;;;;;5032745;28;20847;-72
2023/05/21 01:07:54;;;;;;;26.00;17.70;;;13.70;99.90;;;;;;5033738;28;20572;-72
2023/05/21 01:10:21;;;;;;;24.30;17.53;;;13.70;99.90;;;;;;5039178;28;20567;-72
2023/05/21 01:12:48;;;;;;;25.50;16.70;;;13.70;99.90;;;;;;5034578;28;20516;-72
2023/05/21 01:15:16;;;;;;;23.57;15.77;;;13.70;99.90;;;;;;5034603;28;20468;-72
2023/05/21 01:17:45;;;;;;;33.50;18.00;;;13.70;99.90;;;;;;5042934;28;20520;-72
2023/05/21 01:20:12;;;;;;;21.30;15.93;;;13.70;99.90;;;;;;5031363;28;20453;-72
2023/05/21 01:22:43;;;;;;;26.60;16.60;;;13.70;99.90;;;;;;5039142;28;20844;-72
2023/05/21 01:25:11;;;;;;;23.47;16.07;;;13.70;99.90;;;;;;5047389;28;21003;-72
2023/05/21 01:27:38;;;;;;;21.97;16.07;;;13.70;99.90;;;;;;5032048;28;20819;-72
2023/05/21 01:30:07;;;;;;;23.93;16.80;;;13.60;99.90;;;;;;5032391;28;20450;-72
2023/05/21 01:32:40;;;;;;;24.50;16.97;;;13.60;99.90;;;;;;5031977;28;20851;-72
2023/05/21 01:35:12;;;;;;;24.63;16.27;;;13.60;99.90;;;;;;5038301;28;21016;-72
2023/05/21 01:37:44;;;;;;;27.10;15.80;;;13.60;99.90;;;;;;5039928;28;21006;-72
2023/05/21 01:40:17;;;;;;;27.63;15.90;;;13.60;99.90;;;;;;5032349;28;20500;-72
2023/05/21 01:42:46;;;;;;;25.53;16.63;;;13.50;99.90;;;;;;5040326;28;20527;-72
2023/05/21 01:45:15;;;;;;;24.40;16.00;;;13.50;99.90;;;;;;5039299;28;20950;-72
2023/05/21 01:47:44;;;;;;;28.63;16.50;;;13.50;99.90;;;;;;5031658;28;21080;-72
2023/05/21 01:50:12;;;;;;;23.77;16.70;;;13.40;99.90;;;;;;5031424;28;20449;-72
2023/05/21 01:52:38;;;;;;;28.40;17.77;;;13.40;99.90;;;;;;5039230;28;20474;-72
2023/05/21 01:55:05;;;;;;;25.10;18.17;;;13.40;99.90;;;;;;5031469;28;20454;-72
2023/05/21 01:57:33;;;;;;;27.33;17.50;;;13.30;99.90;;;;;;5039907;28;20445;-71
2023/05/21 02:00:00;;;;;;;24.77;16.57;;;13.30;99.90;;;;;;5040637;28;21024;-71
2023/05/21 02:02:27;;;;;;;26.73;17.00;;;13.30;99.90;;;;;;5031408;28;20481;-72
2023/05/21 02:04:54;;;;;;;24.80;15.30;;;13.30;99.90;;;;;;5036681;28;20470;-71
2023/05/21 02:07:21;;;;;;;24.60;15.77;;;13.30;99.90;;;;;;5031010;28;20453;-71
2023/05/21 02:09:48;;;;;;;27.60;17.57;;;13.30;99.90;;;;;;5031206;28;20484;-71
2023/05/21 02:12:14;;;;;;;26.33;17.87;;;13.30;99.90;;;;;;5042107;28;20984;-71
2023/05/21 02:14:42;;;;;;;26.00;16.80;;;13.30;99.90;;;;;;5036240;28;20538;-71
2023/05/21 02:17:09;;;;;;;27.20;17.80;;;13.30;99.90;;;;;;5038677;28;21572;-71
2023/05/21 02:19:35;;;;;;;30.17;16.77;;;13.20;99.90;;;;;;5037317;28;20465;-71
2023/05/21 02:22:02;;;;;;;27.97;17.13;;;13.20;99.90;;;;;;5032694;28;20539;-71
2023/05/21 02:24:29;;;;;;;29.37;16.50;;;13.20;99.90;;;;;;5037937;28;20476;-71
2023/05/21 02:26:55;;;;;;;27.57;17.20;;;13.20;99.90;;;;;;5030891;28;20454;-71
2023/05/21 02:29:22;;;;;;;28.20;17.37;;;13.20;99.90;;;;;;5031144;28;20505;-71
2023/05/21 02:31:50;;;;;;;29.03;17.90;;;13.20;99.90;;;;;;5030206;28;20501;-71
2023/05/21 02:34:19;;;;;;;23.90;16.90;;;13.20;99.90;;;;;;5034454;28;20996;-71
2023/05/21 02:36:47;;;;;;;23.30;16.30;;;13.20;99.90;;;;;;5034529;28;20464;-71
2023/05/21 02:39:14;;;;;;;26.20;15.90;;;13.20;99.90;;;;;;5030469;28;20446;-72
2023/05/21 02:41:40;;;;;;;25.03;15.47;;;13.20;99.90;;;;;;5034415;28;20537;-72
2023/05/21 02:44:07;;;;;;;26.70;17.17;;;13.20;99.90;;;;;;5033750;28;20868;-72
2023/05/21 02:46:33;;;;;;;25.67;16.87;;;13.20;99.90;;;;;;5042966;28;20454;-71
2023/05/21 02:49:01;;;;;;;29.13;18.87;;;13.20;99.90;;;;;;5031667;28;20511;-72
2023/05/21 02:51:28;;;;;;;28.03;17.03;;;13.20;99.90;;;;;;5036993;28;20497;-71
2023/05/21 02:53:55;;;;;;;30.27;17.40;;;13.10;99.90;;;;;;5030413;28;20579;-71
2023/05/21 02:56:21;;;;;;;26.70;17.00;;;13.20;99.90;;;;;;5033443;28;20457;-71
2023/05/21 02:58:48;;;;;;;23.47;16.60;;;13.10;99.90;;;;;;5040029;28;20466;-71
2023/05/21 03:01:15;;;;;;;27.17;16.40;;;13.10;99.90;;;;;;5030282;28;20470;-72
2023/05/21 03:03:42;;;;;;;23.67;16.17;;;13.10;99.90;;;;;;5032844;28;20483;-72
2023/05/21 03:06:10;;;;;;;27.30;16.70;;;13.20;99.90;;;;;;5030395;28;20503;-72
2023/05/21 03:08:36;;;;;;;26.70;17.33;;;13.20;99.90;;;;;;5030334;28;20953;-72
2023/05/21 03:11:03;;;;;;;25.07;17.00;;;13.20;99.90;;;;;;5030041;28;20493;-72
2023/05/21 03:13:30;;;;;;;25.47;16.80;;;13.10;99.90;;;;;;5030124;28;20479;-72
2023/05/21 03:15:56;;;;;;;27.30;17.60;;;13.10;99.90;;;;;;5030284;28;20512;-72
2023/05/21 03:18:23;;;;;;;29.77;16.60;;;13.20;99.90;;;;;;5034362;28;20449;-72
2023/05/21 03:20:50;;;;;;;26.10;17.10;;;13.20;99.90;;;;;;5030239;28;20465;-72
2023/05/21 03:23:18;;;;;;;26.20;16.60;;;13.10;99.90;;;;;;5032817;28;20831;-72
2023/05/21 03:25:45;;;;;;;32.77;17.93;;;13.10;99.90;;;;;;5040784;28;20457;-72
2023/05/21 03:28:12;;;;;;;27.03;17.60;;;13.10;99.90;;;;;;5029649;28;20545;-72
2023/05/21 03:30:38;;;;;;;27.60;17.00;;;13.10;99.90;;;;;;5034128;28;20461;-72
2023/05/21 03:33:05;;;;;;;24.93;16.47;;;13.10;99.90;;;;;;5030518;28;20945;-72
2023/05/21 03:35:32;;;;;;;27.00;17.60;;;13.10;99.90;;;;;;5030066;28;20449;-72
2023/05/21 03:37:58;;;;;;;27.43;17.67;;;13.10;99.90;;;;;;5029603;28;20453;-72
2023/05/21 03:40:26;;;;;;;24.57;17.33;;;13.10;99.90;;;;;;5030331;28;21006;-72
2023/05/21 03:42:53;;;;;;;26.70;16.20;;;13.10;99.90;;;;;;5030121;28;20446;-72
2023/05/21 03:45:20;;;;;;;27.27;17.67;;;13.10;99.90;;;;;;5038214;28;20457;-72
2023/05/21 03:47:47;;;;;;;28.33;16.97;;;13.10;99.90;;;;;;5033891;28;20992;-71
2023/05/21 03:50:14;;;;;;;27.13;17.40;;;13.10;99.90;;;;;;5033791;28;20450;-72
2023/05/21 03:52:41;;;;;;;26.60;16.10;;;13.10;99.90;;;;;;5033881;28;20507;-72
2023/05/21 03:55:08;;;;;;;26.80;15.70;;;13.10;99.90;;;;;;5034056;28;20520;-72
2023/05/21 03:57:36;;;;;;;26.97;17.40;;;13.10;99.90;;;;;;5040705;28;20518;-71
2023/05/21 04:00:05;;;;;;;28.37;17.80;;;13.10;99.90;;;;;;5036340;28;20938;-71
2023/05/21 04:02:31;;;;;;;26.97;18.07;;;13.10;99.90;;;;;;5045452;28;21057;-72
2023/05/21 04:04:58;;;;;;;26.63;17.03;;;13.10;99.90;;;;;;5036268;28;20511;-72
2023/05/21 04:07:25;;;;;;;27.30;16.83;;;13.10;99.90;;;;;;5037476;28;20472;-72
2023/05/21 04:09:52;;;;;;;22.87;15.30;;;13.10;99.90;;;;;;5037257;28;20461;-72
2023/05/21 04:12:19;;;;;;;25.43;16.37;;;13.10;99.90;;;;;;5038915;28;20497;-72
2023/05/21 04:14:47;;;;;;;24.17;16.77;;;13.10;99.90;;;;;;5033577;28;20537;-72
2023/05/21 04:17:14;;;;;;;23.97;15.23;;;13.10;99.90;;;;;;5040887;28;20480;-71
2023/05/21 04:19:41;;;;;;;28.13;15.80;;;13.20;99.90;;;;;;5040376;28;20490;-71
2023/05/21 04:22:07;;;;;;;24.50;16.57;;;13.20;99.90;;;;;;5043233;28;20469;-72
2023/05/21 04:24:36;;;;;;;28.03;17.20;;;13.20;99.90;;;;;;5033500;28;20883;-73
2023/05/21 04:27:04;;;;;;;24.20;17.00;;;13.20;99.90;;;;;;5033267;28;20458;-72
2023/05/21 04:29:30;;;;;;;31.80;17.17;;;13.20;99.90;;;;;;5044365;28;20449;-71
2023/05/21 04:31:58;;;;;;;23.50;16.90;;;13.30;99.90;;;;;;5036361;28;20498;-72
2023/05/21 04:34:25;;;;;;;31.93;17.07;;;13.30;99.90;;;;;;5038520;28;20446;-72
2023/05/21 04:36:52;;;;;;;29.40;17.87;;;13.40;99.90;;;;;;5036993;28;20996;-71
2023/05/21 04:39:19;;;;;;;26.43;16.73;;;13.40;99.90;;;;;;5035774;28;20458;-71
2023/05/21 04:41:45;;;;;;;22.67;16.40;;;13.40;99.90;;;;;;5033116;28;20470;-71
2023/05/21 04:44:14;;;;;;;30.67;16.67;;;13.40;99.90;;;;;;5032677;28;20461;-72
2023/05/21 04:46:40;;;;;;;25.03;16.50;;;13.40;99.90;;;;;;5033281;28;20451;-72
2023/05/21 04:49:10;;;;;;;25.57;17.33;;;13.50;99.90;;;;;;5032727;28;20511;-71
2023/05/21 04:51:37;;;;;;;26.73;16.70;;;13.50;99.90;;;;;;5033746;28;20889;-69
2023/05/21 04:54:04;;;;;;;23.47;16.57;;;13.50;99.90;;;;;;5032330;28;20449;-69
2023/05/21 04:56:30;;;;;;;24.37;16.73;;;13.60;99.90;;;;;;5032387;28;20450;-69
2023/05/21 04:58:58;;;;;;;26.70;17.33;;;13.60;99.90;;;;;;5040194;28;20468;-69
2023/05/21 05:01:25;;;;;;;30.50;17.60;;;13.60;99.90;;;;;;5036782;28;20465;-69
2023/05/21 05:03:52;;;;;;;24.23;15.97;;;13.60;99.90;;;;;;5036571;28;21164;-69
2023/05/21 05:06:24;;;;;;;26.23;17.10;;;13.60;99.90;;;;;;5048969;28;20442;-71
2023/05/21 05:08:51;;;;;;;30.70;17.63;;;13.70;99.90;;;;;;5031986;28;20560;-70
2023/05/21 05:11:17;;;;;;;24.83;16.83;;;13.70;99.90;;;;;;5031783;28;20559;-70
2023/05/21 05:13:44;;;;;;;23.03;16.30;;;13.80;99.90;;;;;;5040676;28;20458;-70
2023/05/21 05:16:11;;;;;;;23.27;17.13;;;13.80;99.90;;;;;;5040127;28;20983;-70
2023/05/21 05:18:38;;;;;;;25.87;16.83;;;13.90;99.90;;;;;;5031938;28;20454;-71
2023/05/21 05:21:04;;;;;;;29.40;16.10;;;13.90;99.90;;;;;;5040176;28;20520;-71
2023/05/21 05:23:32;;;;;;;24.43;16.60;;;14.00;99.90;;;;;;5039628;28;20510;-69
2023/05/21 05:25:59;;;;;;;26.93;16.90;;;14.00;99.90;;;;;;5039515;28;20457;-69
2023/05/21 05:28:26;;;;;;;22.40;17.10;;;14.10;99.90;;;;;;5030639;28;20988;-70
2023/05/21 05:30:53;;;;;;;23.13;16.10;;;14.10;99.90;;;;;;5040414;28;20843;-70
2023/05/21 05:33:19;;;;;;;23.67;16.40;;;14.10;99.90;;;;;;5039787;28;20562;-69
2023/05/21 05:35:46;;;;;;;29.20;17.43;;;14.20;99.90;;;;;;5031176;28;20453;-69
2023/05/21 05:38:13;;;;;;;29.50;17.80;;;14.30;99.90;;;;;;5031133;28;20454;-69
2023/05/21 05:40:41;;;;;;;26.17;16.77;;;14.30;99.90;;;;;;5031806;28;20992;-69
2023/05/21 05:43:07;;;;;;;25.70;16.93;;;14.30;99.90;;;;;;5039735;28;20446;-69
2023/05/21 05:45:34;;;;;;;26.13;17.00;;;14.40;99.90;;;;;;5039501;28;20594;-69
2023/05/21 05:48:00;;;;;;;24.93;16.80;;;14.40;99.90;;;;;;5031255;28;20454;-69
2023/05/21 05:50:27;;;;;;;24.50;16.63;;;14.50;99.90;;;;;;5031369;28;20450;-69
2023/05/21 05:52:54;;;;;;;22.03;16.07;;;14.60;99.90;;;;;;5034626;28;20639;-69
2023/05/21 05:55:21;;;;;;;26.60;17.50;;;14.60;99.90;;;;;;5034703;28;20523;-70
2023/05/21 05:57:49;;;;;;;22.30;15.20;;;14.60;99.90;;;;;;5031374;28;20458;-69
2023/05/21 06:00:17;;;;;;;24.13;17.20;;;14.70;99.90;;;;;;5032676;28;20450;-68
2023/05/21 06:02:43;;;;;;;27.03;17.70;;;14.70;99.90;;;;;;5044672;28;20482;-69
2023/05/21 06:05:10;;;;;;;24.20;16.80;;;14.80;99.90;;;;;;5036726;28;20453;-70
2023/05/21 06:07:37;;;;;;;26.17;18.00;;;14.80;99.90;;;;;;5034473;28;20538;-70
2023/05/21 06:10:04;;;;;;;25.43;16.53;;;14.90;99.90;;;;;;5033929;28;20455;-70
2023/05/21 06:12:31;;;;;;;21.27;16.20;;;15.00;99.90;;;;;;5035076;28;20481;-70
2023/05/21 06:15:00;;;;;;;19.90;14.47;;;15.10;99.90;;;;;;5030475;28;20938;-69
2023/05/21 06:17:27;;;;;;;25.30;15.80;;;15.20;99.90;;;;;;5035694;28;20609;-69
2023/05/21 06:19:53;;;;;;;23.97;17.60;;;15.30;99.90;;;;;;5040856;28;20506;-69
2023/05/21 06:22:20;;;;;;;27.97;16.83;;;15.40;99.90;;;;;;5036605;28;20465;-70
2023/05/21 06:24:46;;;;;;;25.80;16.37;;;15.50;99.90;;;;;;5038938;28;20511;-70
2023/05/21 06:27:13;;;;;;;33.00;17.07;;;15.50;99.90;;;;;;5030882;28;20487;-70
2023/05/21 06:29:40;;;;;;;25.03;16.47;;;15.70;99.90;;;;;;5040136;28;20465;-70
2023/05/21 06:32:08;;;;;;;25.53;17.30;;;15.80;99.90;;;;;;5040884;28;20485;-70
2023/05/21 06:34:35;;;;;;;24.80;16.20;;;15.90;99.90;;;;;;5035237;28;20453;-70
2023/05/21 06:37:02;;;;;;;25.60;17.23;;;16.00;99.90;;;;;;5030828;28;20500;-69
2023/05/21 06:39:28;;;;;;;22.93;15.87;;;16.00;99.90;;;;;;5032676;28;20460;-69
2023/05/21 06:41:55;;;;;;;26.27;17.00;;;16.10;99.90;;;;;;5032518;28;20475;-70
2023/05/21 06:44:22;;;;;;;21.87;15.90;;;16.20;99.90;;;;;;5030200;28;20959;-69
2023/05/21 06:46:48;;;;;;;27.77;16.87;;;16.30;99.90;;;;;;5038225;28;20460;-70
2023/05/21 06:49:16;;;;;;;25.90;17.20;;;16.50;99.90;;;;;;5031801;28;20814;-69
2023/05/21 06:51:43;;;;;;;24.73;16.90;;;16.60;99.90;;;;;;5040196;28;20549;-69
2023/05/21 06:54:09;;;;;;;23.37;15.90;;;16.80;99.90;;;;;;5032355;28;20445;-69
2023/05/21 06:56:36;;;;;;;23.23;17.33;;;17.00;99.90;;;;;;5030384;28;20424;-69
2023/05/21 06:59:03;;;;;;;23.03;15.70;;;17.10;99.90;;;;;;5031897;28;20498;-68
2023/05/21 07:01:29;;;;;;;20.40;15.50;;;17.40;99.90;;;;;;5030345;28;20448;-70
2023/05/21 07:03:56;;;;;;;23.33;16.27;;;17.60;99.90;;;;;;5042013;28;20420;-69
2023/05/21 07:06:24;;;;;;;24.73;16.27;;;17.90;99.90;;;;;;5031935;28;20428;-69
2023/05/21 07:08:50;;;;;;;29.17;15.63;;;18.20;99.90;;;;;;5041382;28;21089;-69
2023/05/21 07:11:17;;;;;;;23.03;15.80;;;18.40;99.90;;;;;;5033329;28;20477;-68
2023/05/21 07:13:45;;;;;;;25.00;16.67;;;18.70;99.90;;;;;;5034409;28;20463;-69
2023/05/21 07:16:12;;;;;;;22.20;15.60;;;19.00;99.90;;;;;;5033550;28;20480;-69
2023/05/21 07:18:38;;;;;;;25.40;15.90;;;19.10;99.90;;;;;;5035944;28;20944;-69
2023/05/21 07:21:05;;;;;;;22.60;16.17;;;19.20;99.90;;;;;;5045478;28;20455;-69
2023/05/21 07:23:33;;;;;;;22.07;16.67;;;19.30;99.90;;;;;;5036336;28;20997;-68
2023/05/21 07:26:00;;;;;;;22.33;16.07;;;19.40;99.90;;;;;;5030506;28;20423;-69
2023/05/21 07:28:26;;;;;;;27.57;16.60;;;19.50;99.90;;;;;;5033039;28;20428;-69
2023/05/21 07:30:53;;;;;;;20.23;15.17;;;19.60;99.90;;;;;;5038905;28;20480;-69
2023/05/21 07:33:21;;;;;;;25.13;15.10;;;19.60;99.90;;;;;;5044023;28;20489;-68
2023/05/21 07:35:48;;;;;;;26.37;16.23;;;19.70;99.90;;;;;;5037951;28;20511;-68
2023/05/21 07:38:14;;;;;;;22.27;16.33;;;19.80;99.90;;;;;;5039385;28;21186;-68
2023/05/21 07:40:42;;;;;;;21.03;15.07;;;19.80;99.90;;;;;;5031576;28;20477;-69
2023/05/21 07:43:09;;;;;;;24.30;15.60;;;19.80;99.90;;;;;;5030053;28;20453;-69
2023/05/21 07:45:36;;;;;;;18.77;15.07;;;20.00;99.90;;;;;;5045090;28;20454;-69
2023/05/21 07:48:02;;;;;;;20.20;14.90;;;20.10;99.90;;;;;;5036937;28;20452;-69
2023/05/21 07:50:30;;;;;;;22.37;15.37;;;20.20;99.90;;;;;;5037623;28;20957;-70
2023/05/21 07:52:56;;;;;;;22.27;15.80;;;20.40;99.90;;;;;;5029441;28;20485;-69
2023/05/21 07:55:23;;;;;;;20.37;16.20;;;20.50;99.90;;;;;;5040264;28;20517;-70
2023/05/21 07:57:55;;;;;;;27.97;15.90;;;20.70;99.90;;;;;;5038930;28;20457;-70
2023/05/21 08:00:24;;;;;;;22.57;15.23;;;20.80;99.90;;;;;;5036394;28;20933;-70
2023/05/21 08:02:51;;;;;;;22.43;15.40;;;21.10;99.90;;;;;;5033499;28;20963;-70
2023/05/21 08:05:17;;;;;;;24.80;15.83;;;21.40;99.90;;;;;;5030811;28;20549;-71
2023/05/21 08:07:45;;;;;;;20.00;15.07;;;21.60;99.90;;;;;;5036288;28;20456;-70
2023/05/21 08:10:11;;;;;;;20.63;15.30;;;21.80;99.90;;;;;;5030769;28;20538;-71
2023/05/21 08:12:38;;;;;;;21.77;16.57;;;21.70;99.90;;;;;;5030675;28;20922;-71
2023/05/21 08:15:07;;;;;;;19.27;15.20;;;21.70;99.90;;;;;;5042636;28;20461;-70
2023/05/21 08:17:33;;;;;;;20.67;15.93;;;21.70;99.90;;;;;;5046388;28;20456;-70
2023/05/21 08:20:00;;;;;;;22.70;15.80;;;22.00;99.90;;;;;;5046462;28;20449;-70
2023/05/21 08:22:27;;;;;;;21.20;15.30;;;22.20;99.90;;;;;;5046197;28;21345;-70
2023/05/21 08:24:54;;;;;;;18.23;15.03;;;22.30;99.90;;;;;;5047188;28;20444;-70
2023/05/21 08:27:20;;;;;;;20.30;14.73;;;22.40;99.90;;;;;;5046239;28;21177;-71
2023/05/21 08:29:47;;;;;;;20.20;16.37;;;22.40;99.90;;;;;;5047285;28;20872;-70
2023/05/21 08:32:15;;;;;;;22.83;16.30;;;22.60;99.90;;;;;;5050126;28;20460;-69
2023/05/21 08:34:41;;;;;;;22.10;15.60;;;22.50;99.90;;;;;;5050110;28;20871;-70
2023/05/21 08:37:08;;;;;;;23.50;16.57;;;22.60;99.90;;;;;;5050585;28;20440;-70
2023/05/21 08:39:35;;;;;;;20.90;15.97;;;22.30;99.90;;;;;;5049994;28;20461;-70
2023/05/21 08:42:09;;;;;;;20.23;15.23;;;22.20;99.90;;;;;;5050286;28;20549;-70
2023/05/21 08:44:40;;;;;;;22.80;15.40;;;22.20;99.90;;;;;;5050364;28;20470;-70
2023/05/21 08:47:09;;;;;;;25.70;16.20;;;22.20;99.90;;;;;;5049783;28;20547;-70
2023/05/21 08:49:37;;;;;;;21.33;16.13;;;22.40;99.90;;;;;;5049767;28;20453;-71
2023/05/21 08:52:06;;;;;;;21.30;15.40;;;22.60;99.90;;;;;;5049457;28;20471;-73
2023/05/21 08:54:33;;;;;;;21.70;15.60;;;22.80;99.90;;;;;;5049186;28;20484;-73
2023/05/21 08:57:01;;;;;;;19.30;14.67;;;23.10;99.90;;;;;;5049256;28;20441;-72
2023/05/21 08:59:28;;;;;;;22.40;15.37;;;23.50;99.90;;;;;;5048690;28;20464;-74
2023/05/21 09:01:56;;;;;;;23.37;16.07;;;23.70;99.90;;;;;;5048799;28;20472;-73
2023/05/21 09:04:23;;;;;;;22.17;14.97;;;24.00;99.90;;;;;;5049111;28;20460;-73
2023/05/21 09:06:51;;;;;;;16.97;13.80;;;24.20;99.90;;;;;;5049102;28;20514;-74
2023/05/21 09:09:27;;;;;;;18.20;15.70;;;24.30;99.90;;;;;;5048820;28;20479;-75
2023/05/21 09:11:54;;;;;;;16.90;14.10;;;24.40;99.90;;;;;;5048575;28;20472;-74
2023/05/21 09:14:22;;;;;;;23.60;14.00;;;24.50;99.90;;;;;;5049152;28;20481;-73
2023/05/21 09:16:49;;;;;;;17.43;13.50;;;24.50;99.90;;;;;;5047693;28;20453;-75
2023/05/21 09:19:16;;;;;;;16.97;13.80;;;24.40;99.90;;;;;;5042763;28;20961;-73
2023/05/21 09:21:42;;;;;;;19.50;14.77;;;24.60;99.90;;;;;;5048191;28;20988;-72
2023/05/21 09:24:10;;;;;;;18.13;14.40;;;24.90;99.90;;;;;;5048481;28;20449;-74
2023/05/21 09:26:37;;;;;;;18.33;13.73;;;25.00;99.90;;;;;;5048381;28;20511;-73
2023/05/21 09:29:04;;;;;;;22.03;13.67;;;25.30;99.90;;;;;;5048485;28;20478;-73
2023/05/21 09:31:31;;;;;;;18.73;14.37;;;25.80;99.90;;;;;;5048266;28;20532;-74
2023/05/21 09:33:58;;;;;;;18.23;12.13;;;25.80;99.90;;;;;;5048659;28;20496;-74
2023/05/21 09:36:25;;;;;;;18.43;13.90;;;26.00;99.90;;;;;;5048359;28;21113;-72
2023/05/21 09:38:51;;;;;;;17.17;13.10;;;26.10;99.90;;;;;;5048314;28;20514;-72
2023/05/21 09:41:20;;;;;;;24.23;15.27;;;26.30;99.90;;;;;;5048063;28;20472;-72
2023/05/21 09:43:47;;;;;;;14.37;12.87;;;26.10;99.90;;;;;;5047922;28;21181;-72
2023/05/21 09:46:13;;;;;;;16.60;12.50;;;26.30;99.90;;;;;;5048929;28;20874;-72
2023/05/21 09:48:41;;;;;;;18.63;13.00;;;26.60;99.90;;;;;;5047959;28;20506;-72
2023/05/21 09:51:10;;;;;;;18.50;14.40;;;26.40;99.90;;;;;;5048483;28;20479;-72
2023/05/21 09:53:37;;;;;;;16.57;13.00;;;26.50;99.90;;;;;;5049156;28;20871;-72
2023/05/21 09:56:04;;;;;;;17.30;13.10;;;26.80;99.90;;;;;;5049025;28;20452;-71
2023/05/21 09:58:33;;;;;;;12.93;11.57;;;26.80;99.90;;;;;;5048220;28;20464;-74
2023/05/21 10:01:00;;;;;;;17.67;12.67;;;26.80;99.90;;;;;;5046596;28;20542;-74
2023/05/21 10:03:28;;;;;;;13.63;12.10;;;27.00;99.90;;;;;;5047377;28;20594;-73
2023/05/21 10:05:57;;;;;;;16.50;12.80;;;27.00;99.90;;;;;;5048601;28;20452;-74
2023/05/21 10:08:28;;;;;;;21.40;15.37;;;26.90;99.90;;;;;;5048547;28;20505;-73
2023/05/21 10:10:55;;;;;;;17.53;13.37;;;26.60;99.90;;;;;;5048623;28;20468;-73
2023/05/21 10:13:23;;;;;;;16.10;13.90;;;26.20;99.90;;;;;;5047817;28;20546;-73
2023/05/21 10:16:01;;;;;;;17.90;14.10;;;25.90;99.90;;;;;;5047962;28;20449;-73
2023/05/21 10:18:29;;;;;;;16.23;13.63;;;25.80;99.90;;;;;;5048274;28;20460;-71
2023/05/21 10:20:56;;;;;;;20.20;14.50;;;25.60;99.90;;;;;;5047843;28;20518;-71
2023/05/21 10:23:24;;;;;;;15.53;13.53;;;25.60;99.90;;;;;;5047688;28;20511;-71
2023/05/21 10:25:52;;;;;;;20.10;12.97;;;25.50;99.90;;;;;;5048025;28;20449;-71
2023/05/21 10:28:19;;;;;;;20.50;12.80;;;25.40;99.90;;;;;;5047193;28;20873;-71
2023/05/21 10:30:46;;;;;;;17.70;14.07;;;25.40;99.90;;;;;;5048246;28;20992;-71
2023/05/21 10:33:16;;;;;;;17.93;12.70;;;25.30;99.90;;;;;;5048030;28;20487;-71
2023/05/21 10:35:44;;;;;;;15.07;12.80;;;25.40;99.90;;;;;;5048227;28;20448;-71
2023/05/21 10:38:13;;;;;;;16.73;12.60;;;25.60;99.90;;;;;;5047466;28;20439;-72
2023/05/21 10:40:40;;;;;;;18.43;14.27;;;25.80;99.90;;;;;;5048166;28;20498;-71
2023/05/21 10:43:29;;;;;;;19.07;13.30;;;25.90;99.90;;;;;;5047229;28;21014;-71
2023/05/21 10:46:14;;;;;;;17.73;12.27;;;26.10;99.90;;;;;;5047885;28;20495;-72
2023/05/21 10:49:10;;;;;;;16.80;13.33;;;26.40;99.90;;;;;;5047269;28;20459;-72
2023/05/21 10:52:04;;;;;;;15.50;13.30;;;26.50;99.90;;;;;;5047254;28;20481;-72
2023/05/21 10:54:57;;;;;;;15.60;12.80;;;26.50;99.90;;;;;;5047408;28;20571;-72
2023/05/21 10:58:11;;;;;;;13.90;12.40;;;26.60;99.90;;;;;;5047725;28;20449;-71
2023/05/21 11:00:38;;;;;;;14.63;13.13;;;26.80;99.90;;;;;;4954909;28;20489;-71
2023/05/21 11:03:06;;;;;;;18.20;12.67;;;26.80;99.90;;;;;;5047384;28;20448;-71
2023/05/21 11:05:52;;;;;;;14.90;13.33;;;26.80;99.90;;;;;;5047088;28;20483;-71
2023/05/21 11:08:22;;;;;;;14.77;12.47;;;26.80;99.90;;;;;;5047278;28;20498;-73
2023/05/21 11:10:53;;;;;;;14.30;12.53;;;26.80;99.90;;;;;;5047215;28;20556;-71
2023/05/21 11:13:20;;;;;;;14.17;11.97;;;26.80;99.90;;;;;;5047109;28;20520;-71
2023/05/21 11:16:06;;;;;;;15.00;12.00;;;27.10;99.90;;;;;;5047118;28;20510;-71
2023/05/21 11:19:02;;;;;;;16.27;12.20;;;27.30;99.90;;;;;;5044658;28;20455;-72
2023/05/21 11:21:34;;;;;;;24.73;12.77;;;27.50;99.90;;;;;;5045474;28;20469;-72
2023/05/21 11:24:07;;;;;;;16.10;12.73;;;27.60;99.90;;;;;;5046828;28;20456;-72
2023/05/21 11:27:01;;;;;;;19.47;12.13;;;27.70;99.90;;;;;;5044207;28;20543;-72
2023/05/21 11:29:39;;;;;;;12.40;11.17;;;27.90;99.90;;;;;;5043761;28;20480;-72
2023/05/21 11:32:08;;;;;;;14.00;11.40;;;28.10;99.90;;;;;;5044319;28;20499;-72
2023/05/21 11:34:38;;;;;;;10.50;9.40;;;28.20;99.90;;;;;;5045325;28;20503;-72
2023/05/21 11:37:29;;;;;;;11.07;9.77;;;28.30;99.90;;;;;;5046743;28;20457;-72
2023/05/21 11:39:57;;;;;;;10.20;9.10;;;28.60;99.90;;;;;;5047069;28;20957;-71
2023/05/21 11:42:32;;;;;;;11.32;9.20;;;28.80;99.90;;;;;;5046317;28;20341;-71
2023/05/21 11:44:59;;;;;;;13.00;9.27;;;28.90;99.90;;;;;;5047342;28;20213;-72
2023/05/21 11:47:27;;;;;;;10.60;9.07;;;28.90;99.90;;;;;;5046634;28;20444;-75
2023/05/21 11:49:55;;;;;;;12.87;9.23;;;28.90;99.90;;;;;;5046254;28;20969;-72
2023/05/21 11:52:21;;;;;;;14.30;9.57;;;28.90;99.90;;;;;;5046536;28;20470;-72
2023/05/21 11:54:53;;;;;;;9.63;8.23;;;28.80;99.90;;;;;;5046160;28;20480;-72
2023/05/21 11:57:21;;;;;;;13.47;8.77;;;28.60;99.90;;;;;;5046866;28;21027;-72
2023/05/21 11:59:48;;;;;;;12.20;8.73;;;28.20;99.90;;;;;;5046631;28;20518;-72
2023/05/21 12:02:16;;;;;;;14.07;9.90;;;27.80;99.90;;;;;;5046532;28;20476;-72
2023/05/21 12:04:43;;;;;;;9.20;8.30;;;27.50;99.90;;;;;;5046916;28;20463;-71
2023/05/21 12:07:12;;;;;;;10.80;8.50;;;27.30;99.90;;;;;;5050470;28;20502;-72
2023/05/21 12:09:39;;;;;;;11.80;9.00;;;27.30;99.90;;;;;;5050414;28;20510;-72
2023/05/21 12:12:08;;;;;;;10.20;9.17;;;27.50;99.90;;;;;;5050640;28;20476;-72
2023/05/21 12:14:35;;;;;;;10.20;8.67;;;27.60;99.90;;;;;;5050362;28;20902;-71
2023/05/21 12:17:03;;;;;;;13.13;10.27;;;27.60;99.90;;;;;;5050506;28;20494;-73
2023/05/21 12:19:32;;;;;;;11.30;9.70;;;27.50;99.90;;;;;;5048942;28;20459;-72
2023/05/21 12:22:01;;;;;;;11.50;8.97;;;27.50;99.90;;;;;;5049882;28;20502;-72
2023/05/21 12:24:28;;;;;;;10.40;9.27;;;27.40;99.90;;;;;;5050144;28;20443;-72
2023/05/21 12:26:58;;;;;;;11.43;8.10;;;27.40;99.90;;;;;;5050021;28;20498;-72
2023/05/21 12:29:26;;;;;;;9.70;8.80;;;27.40;99.90;;;;;;5050227;28;20452;-72
2023/05/21 12:31:53;;;;;;;11.13;8.80;;;27.50;99.90;;;;;;5050291;28;20472;-72
2023/05/21 12:34:38;;;;;;;9.33;8.23;;;27.60;99.90;;;;;;5050135;28;20537;-72